Time;durP1;ratioP1;P1;durP2;ratioP2;P2;SDS_P1;SDS_P2;PMS_P1;PMS_P2;Temp;Humidity;BMP_temperature;BMP_pressure;BME280_temperature;BME280_humidity;BME280_pressure;Samples;Min_cycle;Max_cycle;Signal;HPM_P1;HPM_P2
2023/03/22 00:02:05;;;;;;;11.50;10.30;;;9.00;99.90;;;;;;5094616;28;20629;-72
2023/03/22 00:04:33;;;;;;;13.70;11.80;;;8.90;99.90;;;;;;5094910;28;20204;-72
2023/03/22 00:06:59;;;;;;;13.67;12.03;;;8.90;99.90;;;;;;5094662;28;20287;-72
2023/03/22 00:09:26;;;;;;;15.67;12.10;;;8.90;99.90;;;;;;5094448;28;20655;-72
2023/03/22 00:11:53;;;;;;;13.40;11.70;;;8.90;99.90;;;;;;5094186;28;20255;-73
2023/03/22 00:14:19;;;;;;;14.37;12.03;;;8.90;99.90;;;;;;5094354;28;20246;-72
2023/03/22 00:16:47;;;;;;;19.83;12.10;;;9.00;99.90;;;;;;5094270;28;20561;-73
2023/03/22 00:19:15;;;;;;;18.60;12.70;;;9.00;99.90;;;;;;5094410;28;20192;-72
2023/03/22 00:21:43;;;;;;;14.60;11.67;;;9.00;99.90;;;;;;5094414;28;20204;-72
2023/03/22 00:24:09;;;;;;;15.03;12.27;;;9.00;99.90;;;;;;5094171;28;20659;-71
2023/03/22 00:26:36;;;;;;;14.57;11.90;;;8.90;99.90;;;;;;5094216;28;20220;-72
2023/03/22 00:29:03;;;;;;;12.60;11.23;;;8.90;99.90;;;;;;5094006;28;20224;-72
2023/03/22 00:31:30;;;;;;;13.77;12.23;;;8.80;99.90;;;;;;5094184;28;20655;-72
2023/03/22 00:33:56;;;;;;;14.50;12.93;;;8.70;99.90;;;;;;5094021;28;20726;-72
2023/03/22 00:36:23;;;;;;;17.37;11.80;;;8.80;99.90;;;;;;5094083;28;20227;-72
2023/03/22 00:38:51;;;;;;;13.13;11.80;;;8.70;99.90;;;;;;5094003;28;20344;-72
2023/03/22 00:41:19;;;;;;;13.00;11.63;;;8.60;99.90;;;;;;5093840;28;20231;-72
2023/03/22 00:43:46;;;;;;;13.63;11.67;;;8.50;99.90;;;;;;5092714;28;20283;-72
2023/03/22 00:46:14;;;;;;;15.03;12.10;;;8.40;99.90;;;;;;5093915;28;20629;-72
2023/03/22 00:48:40;;;;;;;15.43;12.23;;;8.20;99.90;;;;;;5093909;28;20246;-72
2023/03/22 00:51:08;;;;;;;14.53;11.83;;;8.20;99.90;;;;;;5093652;28;20640;-72
2023/03/22 00:53:35;;;;;;;16.47;12.43;;;8.10;99.90;;;;;;5093654;28;20232;-72
2023/03/22 00:56:04;;;;;;;15.43;12.57;;;8.10;99.90;;;;;;5093519;28;20203;-72
2023/03/22 00:58:31;;;;;;;16.13;12.07;;;8.00;99.90;;;;;;5093742;28;20724;-72
2023/03/22 01:00:58;;;;;;;14.73;12.27;;;7.90;99.90;;;;;;5093738;28;20549;-72
2023/03/22 01:03:25;;;;;;;15.90;12.93;;;7.90;99.90;;;;;;5093744;28;20228;-72
2023/03/22 01:05:54;;;;;;;14.37;11.90;;;7.90;99.90;;;;;;5093499;28;20223;-72
2023/03/22 01:08:21;;;;;;;18.80;14.43;;;7.80;99.90;;;;;;5093479;28;20263;-72
2023/03/22 01:10:49;;;;;;;17.63;13.63;;;7.90;99.90;;;;;;5093148;28;20272;-72
2023/03/22 01:13:17;;;;;;;17.73;13.53;;;7.90;99.90;;;;;;5093539;28;20200;-72
2023/03/22 01:15:44;;;;;;;17.33;14.13;;;7.90;99.90;;;;;;5093333;28;20231;-72
2023/03/22 01:18:10;;;;;;;16.47;13.50;;;7.90;99.90;;;;;;5093361;28;20200;-72
2023/03/22 01:20:37;;;;;;;16.30;13.23;;;8.00;99.90;;;;;;5093191;28;20231;-72
2023/03/22 01:23:03;;;;;;;14.43;12.27;;;8.10;99.90;;;;;;5093137;28;20673;-72
2023/03/22 01:25:30;;;;;;;14.47;12.87;;;8.00;99.90;;;;;;5093090;28;20196;-72
2023/03/22 01:27:57;;;;;;;15.27;12.17;;;8.00;99.90;;;;;;5093294;28;20252;-72
2023/03/22 01:30:25;;;;;;;13.00;11.60;;;7.90;99.90;;;;;;5093191;28;20255;-72
2023/03/22 01:32:51;;;;;;;12.40;10.73;;;7.90;99.90;;;;;;5092944;28;20228;-72
2023/03/22 01:35:18;;;;;;;15.63;11.47;;;7.90;99.90;;;;;;5093048;28;20249;-72
2023/03/22 01:37:45;;;;;;;16.03;11.90;;;7.90;99.90;;;;;;5092945;28;20221;-71
2023/03/22 01:40:13;;;;;;;14.53;12.43;;;7.90;99.90;;;;;;5093127;28;20204;-72
2023/03/22 01:42:40;;;;;;;17.67;12.00;;;7.90;99.90;;;;;;5092938;28;20238;-72
2023/03/22 01:45:36;;;;;;;14.80;12.30;;;7.90;99.90;;;;;;5092980;28;20239;-72
2023/03/22 01:48:08;;;;;;;13.07;10.77;;;7.80;99.90;;;;;;5071067;28;20227;-72
2023/03/22 01:50:37;;;;;;;15.30;10.47;;;7.70;99.90;;;;;;5092745;28;20553;-72
2023/03/22 01:53:07;;;;;;;17.40;11.23;;;7.60;99.90;;;;;;5092564;28;20682;-72
2023/03/22 01:55:34;;;;;;;14.70;10.77;;;7.50;99.90;;;;;;5092593;28;20684;-72
2023/03/22 01:58:01;;;;;;;19.07;12.10;;;7.40;99.90;;;;;;5092767;28;20619;-72
2023/03/22 02:00:28;;;;;;;14.33;11.63;;;7.20;99.90;;;;;;5092709;28;20227;-72
2023/03/22 02:02:56;;;;;;;16.07;11.70;;;7.30;99.90;;;;;;5092640;28;20247;-72
2023/03/22 02:05:23;;;;;;;13.07;11.40;;;7.30;99.90;;;;;;5092897;28;20192;-72
2023/03/22 02:07:50;;;;;;;13.33;11.27;;;7.00;99.90;;;;;;5092783;28;20224;-72
2023/03/22 02:10:19;;;;;;;15.13;12.07;;;6.90;99.90;;;;;;5092708;28;20227;-72
2023/03/22 02:12:59;;;;;;;15.00;12.10;;;6.90;99.90;;;;;;5092669;28;20196;-72
2023/03/22 02:15:29;;;;;;;16.03;12.30;;;7.00;99.90;;;;;;5092595;28;20200;-72
2023/03/22 02:18:15;;;;;;;15.50;12.00;;;7.00;99.90;;;;;;5092773;28;20196;-73
2023/03/22 02:21:17;;;;;;;14.97;12.40;;;7.10;99.90;;;;;;5092508;28;20548;-72
2023/03/22 02:24:23;;;;;;;14.47;11.13;;;6.90;99.90;;;;;;5092471;28;20589;-72
2023/03/22 02:27:20;;;;;;;17.23;12.13;;;6.60;99.90;;;;;;5092622;28;20230;-72
2023/03/22 02:29:56;;;;;;;17.43;13.13;;;6.50;99.90;;;;;;5092458;28;20201;-72
2023/03/22 02:33:04;;;;;;;16.23;13.60;;;6.50;99.90;;;;;;5092591;28;20259;-72
2023/03/22 02:35:45;;;;;;;15.50;12.53;;;6.50;99.90;;;;;;5021805;28;20204;-72
2023/03/22 02:38:45;;;;;;;17.67;12.43;;;6.40;99.90;;;;;;5092242;28;20235;-72
2023/03/22 02:41:16;;;;;;;17.03;12.50;;;6.30;99.90;;;;;;5092444;28;20196;-72
2023/03/22 02:43:52;;;;;;;14.73;12.80;;;6.20;99.90;;;;;;5092443;28;20317;-72
2023/03/22 02:46:24;;;;;;;14.50;12.00;;;6.10;99.90;;;;;;5092288;28;20239;-72
2023/03/22 02:49:01;;;;;;;17.60;13.43;;;6.00;99.90;;;;;;5092539;28;20220;-72
2023/03/22 02:51:36;;;;;;;16.10;12.63;;;6.00;99.90;;;;;;5092313;28;20629;-72
2023/03/22 02:54:09;;;;;;;17.80;13.27;;;5.90;99.90;;;;;;5092310;28;20245;-72
2023/03/22 02:56:42;;;;;;;17.37;12.93;;;5.80;99.90;;;;;;5092270;28;20200;-72
2023/03/22 02:59:11;;;;;;;20.30;13.60;;;5.80;99.90;;;;;;5092065;28;20219;-72
2023/03/22 03:01:41;;;;;;;18.40;14.00;;;5.80;99.90;;;;;;5092205;28;20236;-72
2023/03/22 03:04:12;;;;;;;20.17;14.30;;;5.70;99.90;;;;;;5092318;28;20220;-72
2023/03/22 03:06:44;;;;;;;18.93;14.70;;;5.70;99.90;;;;;;5094258;28;20247;-72
2023/03/22 03:09:16;;;;;;;18.93;14.43;;;5.70;99.90;;;;;;5095781;28;20203;-72
2023/03/22 03:11:45;;;;;;;19.07;14.33;;;5.70;99.90;;;;;;5095627;28;20220;-72
2023/03/22 03:14:20;;;;;;;18.60;13.97;;;5.60;99.90;;;;;;5095571;28;20723;-72
2023/03/22 03:16:51;;;;;;;17.40;14.27;;;5.60;99.90;;;;;;5095761;28;20200;-71
2023/03/22 03:19:27;;;;;;;19.03;14.93;;;5.60;99.90;;;;;;5095615;28;20204;-72
2023/03/22 03:22:02;;;;;;;20.10;14.87;;;5.60;99.90;;;;;;5095468;28;20204;-72
2023/03/22 03:24:39;;;;;;;26.10;15.73;;;5.60;99.90;;;;;;5095642;28;20255;-72
2023/03/22 03:27:13;;;;;;;23.10;16.40;;;5.70;99.90;;;;;;5095539;28;20206;-72
2023/03/22 03:29:44;;;;;;;24.97;17.70;;;5.70;99.90;;;;;;5095378;28;20610;-72
2023/03/22 03:32:18;;;;;;;24.10;16.77;;;5.70;99.90;;;;;;5095226;28;20266;-72
2023/03/22 03:34:50;;;;;;;23.30;16.27;;;5.50;99.90;;;;;;5094988;28;20255;-72
2023/03/22 03:37:20;;;;;;;28.27;18.30;;;5.50;99.90;;;;;;5095425;28;20192;-72
2023/03/22 03:39:53;;;;;;;27.30;19.00;;;5.30;99.90;;;;;;5095198;28;20192;-72
2023/03/22 03:42:24;;;;;;;23.47;16.87;;;5.40;99.90;;;;;;5095083;28;20242;-72
2023/03/22 03:44:51;;;;;;;26.47;16.73;;;5.30;99.90;;;;;;5094897;28;20226;-72
2023/03/22 03:47:19;;;;;;;23.57;17.67;;;5.30;99.90;;;;;;5095168;28;20655;-72
2023/03/22 03:49:46;;;;;;;21.20;15.30;;;5.40;99.90;;;;;;5095079;28;20196;-72
2023/03/22 03:52:13;;;;;;;19.33;14.97;;;5.30;99.90;;;;;;5094959;28;20223;-72
2023/03/22 03:54:39;;;;;;;26.10;18.17;;;5.30;99.90;;;;;;5095009;28;20211;-72
2023/03/22 03:57:07;;;;;;;29.90;19.70;;;5.30;99.90;;;;;;5094834;28;20616;-72
2023/03/22 03:59:34;;;;;;;37.20;25.43;;;5.10;99.90;;;;;;5094723;28;20239;-73
2023/03/22 04:02:01;;;;;;;35.50;24.37;;;5.10;99.90;;;;;;5094841;28;20200;-72
2023/03/22 04:04:28;;;;;;;30.33;20.70;;;5.00;99.90;;;;;;5094755;28;20201;-72
2023/03/22 04:06:57;;;;;;;23.10;16.87;;;5.00;99.90;;;;;;5094730;28;20224;-72
2023/03/22 04:09:24;;;;;;;25.43;17.10;;;5.10;99.90;;;;;;5094559;28;20234;-72
2023/03/22 04:11:50;;;;;;;22.93;16.03;;;5.00;99.90;;;;;;5094607;28;20252;-72
2023/03/22 04:14:18;;;;;;;26.37;15.40;;;5.00;99.90;;;;;;5094718;28;20224;-72
2023/03/22 04:16:45;;;;;;;23.37;15.93;;;5.00;99.90;;;;;;5094021;28;20695;-72
2023/03/22 04:19:12;;;;;;;24.30;17.10;;;4.90;99.90;;;;;;5094328;28;20725;-72
2023/03/22 04:21:39;;;;;;;26.43;17.67;;;4.90;99.90;;;;;;5094341;28;20235;-72
2023/03/22 04:24:06;;;;;;;25.80;17.60;;;5.10;99.90;;;;;;5094278;28;20231;-72
2023/03/22 04:26:34;;;;;;;24.83;17.67;;;5.00;99.90;;;;;;5094191;28;20231;-72
2023/03/22 04:29:01;;;;;;;24.90;17.13;;;4.90;99.90;;;;;;5094389;28;20196;-72
2023/03/22 04:31:30;;;;;;;22.97;15.80;;;4.80;99.90;;;;;;5094208;28;20549;-72
2023/03/22 04:33:59;;;;;;;22.43;15.77;;;4.70;99.90;;;;;;5094013;28;20232;-72
2023/03/22 04:36:29;;;;;;;21.10;15.37;;;4.70;99.90;;;;;;5094329;28;20197;-72
2023/03/22 04:38:57;;;;;;;22.40;16.07;;;4.80;99.90;;;;;;5093974;28;20192;-72
2023/03/22 04:41:23;;;;;;;26.10;16.50;;;4.80;99.90;;;;;;5093781;28;20239;-72
2023/03/22 04:43:50;;;;;;;20.57;15.33;;;4.80;99.90;;;;;;5094067;28;20237;-73
2023/03/22 04:46:20;;;;;;;22.73;15.57;;;4.70;99.90;;;;;;5093858;28;20636;-72
2023/03/22 04:48:47;;;;;;;22.07;15.47;;;4.70;99.90;;;;;;5093799;28;20200;-73
2023/03/22 04:51:14;;;;;;;25.73;15.77;;;4.60;99.90;;;;;;5093667;28;20235;-71
2023/03/22 04:53:41;;;;;;;23.67;15.60;;;4.60;99.90;;;;;;5093509;28;20702;-72
2023/03/22 04:56:10;;;;;;;24.43;16.20;;;4.60;99.90;;;;;;5093874;28;20552;-72
2023/03/22 04:58:39;;;;;;;24.33;17.40;;;4.70;99.90;;;;;;5093830;28;20196;-72
2023/03/22 05:01:07;;;;;;;25.03;17.50;;;4.60;99.90;;;;;;5093670;28;20242;-73
2023/03/22 05:03:34;;;;;;;24.50;16.60;;;4.60;99.90;;;;;;5093564;28;20196;-72
2023/03/22 05:06:05;;;;;;;23.30;17.33;;;4.50;99.90;;;;;;5093494;28;20255;-72
2023/03/22 05:08:32;;;;;;;23.97;17.00;;;4.50;99.90;;;;;;5093635;28;20572;-72
2023/03/22 05:11:04;;;;;;;22.43;16.33;;;4.40;99.90;;;;;;5093517;28;20231;-72
2023/03/22 05:13:30;;;;;;;22.27;16.63;;;4.40;99.90;;;;;;5093394;28;20279;-72
2023/03/22 05:15:58;;;;;;;21.83;15.63;;;4.40;99.90;;;;;;5093426;28;20197;-71
2023/03/22 05:18:25;;;;;;;22.73;15.37;;;4.40;99.90;;;;;;5093296;28;20196;-72
2023/03/22 05:20:53;;;;;;;25.27;16.37;;;4.30;99.90;;;;;;5093167;28;20193;-72
2023/03/22 05:23:22;;;;;;;25.20;17.30;;;4.30;99.90;;;;;;5093463;28;20210;-72
2023/03/22 05:25:50;;;;;;;26.23;17.13;;;4.30;99.90;;;;;;5093219;28;20230;-72
2023/03/22 05:28:20;;;;;;;26.83;17.63;;;4.40;99.90;;;;;;5092718;28;20231;-72
2023/03/22 05:30:47;;;;;;;23.97;16.93;;;4.40;99.90;;;;;;5093328;28;20192;-72
2023/03/22 05:33:15;;;;;;;25.43;18.53;;;4.40;99.90;;;;;;5092857;28;20333;-73
2023/03/22 05:35:42;;;;;;;28.93;19.23;;;4.50;99.90;;;;;;5093166;28;20205;-73
2023/03/22 05:38:10;;;;;;;30.07;19.20;;;4.50;99.90;;;;;;5093121;28;20219;-72
2023/03/22 05:40:38;;;;;;;25.13;19.50;;;4.60;99.90;;;;;;5092965;28;20632;-73
2023/03/22 05:43:04;;;;;;;29.10;19.73;;;4.70;99.90;;;;;;5092931;28;20252;-73
2023/03/22 05:45:31;;;;;;;28.53;20.00;;;4.70;99.90;;;;;;5092850;28;20204;-73
2023/03/22 05:47:58;;;;;;;30.93;20.53;;;4.80;99.90;;;;;;5092754;28;20210;-74
2023/03/22 05:50:25;;;;;;;27.00;19.20;;;4.80;99.90;;;;;;5093034;28;20223;-73
2023/03/22 05:52:52;;;;;;;30.57;20.40;;;4.80;99.90;;;;;;5092913;28;20227;-73
2023/03/22 05:55:19;;;;;;;33.57;21.63;;;4.90;99.90;;;;;;5092902;28;20192;-73
2023/03/22 05:57:50;;;;;;;34.03;22.90;;;4.90;99.90;;;;;;5092762;28;20231;-73
2023/03/22 06:00:18;;;;;;;29.70;21.37;;;5.00;99.90;;;;;;5092749;28;20196;-73
2023/03/22 06:02:46;;;;;;;33.60;22.77;;;5.20;99.90;;;;;;5092776;28;20307;-73
2023/03/22 06:05:15;;;;;;;38.20;23.47;;;5.20;99.90;;;;;;5092775;28;20253;-73
2023/03/22 06:07:42;;;;;;;33.47;22.87;;;5.20;99.90;;;;;;5092521;28;20703;-73
2023/03/22 06:10:12;;;;;;;31.50;21.43;;;5.30;99.90;;;;;;5092657;28;20290;-73
2023/03/22 06:12:39;;;;;;;37.77;24.03;;;5.30;99.90;;;;;;5092511;28;20319;-73
2023/03/22 06:15:08;;;;;;;34.70;25.17;;;5.40;99.90;;;;;;5092528;28;20533;-73
2023/03/22 06:17:35;;;;;;;36.67;24.70;;;5.50;99.90;;;;;;5092745;28;20231;-73
2023/03/22 06:20:07;;;;;;;31.67;22.63;;;5.60;99.90;;;;;;5092982;28;20208;-73
2023/03/22 06:22:34;;;;;;;33.33;22.60;;;5.60;99.90;;;;;;5092791;28;20224;-75
2023/03/22 06:25:01;;;;;;;33.77;22.97;;;5.70;99.90;;;;;;5092509;28;20633;-73
2023/03/22 06:27:27;;;;;;;36.60;23.00;;;5.80;99.90;;;;;;5092510;28;20345;-73
2023/03/22 06:29:54;;;;;;;35.27;24.23;;;5.90;99.90;;;;;;5092485;28;20197;-73
2023/03/22 06:32:23;;;;;;;40.20;25.27;;;6.00;99.90;;;;;;5092306;28;20667;-72
2023/03/22 06:34:50;;;;;;;35.27;24.13;;;6.10;99.90;;;;;;5092462;28;20224;-72
2023/03/22 06:37:16;;;;;;;36.20;24.70;;;6.30;99.90;;;;;;5092452;28;20201;-73
2023/03/22 06:39:43;;;;;;;37.30;23.10;;;6.40;99.90;;;;;;5093134;28;20200;-72
2023/03/22 06:42:10;;;;;;;31.60;23.40;;;6.60;99.90;;;;;;5095960;28;20228;-73
2023/03/22 06:44:36;;;;;;;32.87;23.63;;;6.70;99.90;;;;;;5096212;28;20565;-73
2023/03/22 06:47:04;;;;;;;32.33;23.03;;;6.90;99.90;;;;;;5096237;28;20200;-73
2023/03/22 06:49:31;;;;;;;30.40;22.50;;;7.00;99.90;;;;;;5095947;28;20640;-73
2023/03/22 06:51:58;;;;;;;29.07;23.20;;;7.10;99.90;;;;;;5095956;28;20196;-72
2023/03/22 06:54:25;;;;;;;34.83;24.03;;;7.30;99.90;;;;;;5095974;28;20262;-73
2023/03/22 06:56:51;;;;;;;29.87;23.30;;;7.40;99.90;;;;;;5096049;28;20235;-73
2023/03/22 06:59:18;;;;;;;26.77;22.30;;;7.60;99.90;;;;;;5096135;28;20281;-73
2023/03/22 07:01:44;;;;;;;33.87;24.07;;;7.70;99.90;;;;;;5095844;28;20594;-73
2023/03/22 07:04:11;;;;;;;27.23;20.57;;;7.90;99.90;;;;;;5095943;28;20196;-72
2023/03/22 07:06:39;;;;;;;28.77;21.13;;;8.00;99.90;;;;;;5095815;28;20231;-73
2023/03/22 07:09:06;;;;;;;27.13;19.73;;;8.20;99.90;;;;;;5095815;28;20226;-74
2023/03/22 07:11:32;;;;;;;20.70;18.03;;;8.60;99.90;;;;;;5095902;28;20196;-72
2023/03/22 07:13:59;;;;;;;21.33;17.23;;;8.70;99.90;;;;;;5095697;28;20239;-71
2023/03/22 07:16:25;;;;;;;19.93;15.63;;;8.90;99.90;;;;;;5095501;28;20708;-71
2023/03/22 07:18:52;;;;;;;18.53;13.93;;;9.10;99.90;;;;;;5095474;28;20239;-74
2023/03/22 07:21:19;;;;;;;14.43;11.20;;;9.20;99.90;;;;;;5095608;28;20228;-72
2023/03/22 07:23:47;;;;;;;13.57;11.70;;;9.40;99.90;;;;;;5095264;28;20262;-73
2023/03/22 07:26:13;;;;;;;12.20;10.90;;;9.60;99.90;;;;;;5095511;28;20232;-72
2023/03/22 07:28:43;;;;;;;11.50;8.17;;;9.70;99.90;;;;;;5095303;28;20241;-72
2023/03/22 07:31:11;;;;;;;10.07;8.93;;;9.90;99.90;;;;;;5095366;28;20200;-73
2023/03/22 07:33:39;;;;;;;9.40;7.90;;;10.20;99.90;;;;;;5095157;28;20224;-72
2023/03/22 07:36:07;;;;;;;9.23;7.50;;;10.30;99.90;;;;;;5095045;28;20203;-72
2023/03/22 07:38:35;;;;;;;9.47;6.67;;;10.60;99.90;;;;;;5095316;28;20224;-72
2023/03/22 07:41:03;;;;;;;8.27;6.43;;;10.80;99.90;;;;;;5095200;28;20628;-72
2023/03/22 07:43:30;;;;;;;8.00;6.30;;;10.80;99.90;;;;;;5095024;28;20331;-72
2023/03/22 07:45:57;;;;;;;8.03;6.17;;;11.00;99.90;;;;;;5094972;28;20225;-72
2023/03/22 07:48:24;;;;;;;10.93;6.77;;;11.10;99.90;;;;;;5094883;28;20250;-72
2023/03/22 07:50:54;;;;;;;6.17;5.57;;;11.10;99.90;;;;;;5094700;28;20233;-72
2023/03/22 07:53:21;;;;;;;7.43;6.07;;;11.10;99.90;;;;;;5094424;28;20236;-72
2023/03/22 07:55:48;;;;;;;7.27;6.37;;;11.40;99.90;;;;;;5094935;28;20265;-72
2023/03/22 07:58:16;;;;;;;9.20;6.13;;;11.40;99.90;;;;;;5094735;28;20234;-72
2023/03/22 08:00:42;;;;;;;8.87;5.90;;;11.30;99.90;;;;;;5094574;28;20714;-71
2023/03/22 08:03:11;;;;;;;7.10;6.13;;;11.50;99.90;;;;;;5094452;28;20252;-72
2023/03/22 08:05:40;;;;;;;7.00;6.03;;;11.70;99.90;;;;;;5094835;28;20540;-72
2023/03/22 08:08:07;;;;;;;8.20;5.67;;;11.80;99.90;;;;;;5094627;28;20200;-73
2023/03/22 08:10:33;;;;;;;8.33;5.77;;;11.90;99.90;;;;;;5094531;28;20233;-72
2023/03/22 08:13:00;;;;;;;6.93;5.30;;;12.20;99.90;;;;;;5094444;28;20227;-72
2023/03/22 08:15:28;;;;;;;5.73;5.17;;;12.30;99.90;;;;;;5094278;28;20756;-72
2023/03/22 08:17:56;;;;;;;7.77;4.90;;;12.40;99.90;;;;;;5094503;28;20238;-73
2023/03/22 08:20:24;;;;;;;6.40;4.70;;;12.30;99.90;;;;;;5094421;28;20287;-72
2023/03/22 08:22:51;;;;;;;5.30;3.63;;;12.40;99.90;;;;;;5094082;28;20802;-72
2023/03/22 08:25:18;;;;;;;5.33;3.33;;;12.60;99.90;;;;;;5094398;28;20200;-72
2023/03/22 08:27:44;;;;;;;6.73;4.13;;;12.70;99.90;;;;;;5094126;28;20228;-72
2023/03/22 08:30:12;;;;;;;4.50;3.60;;;12.70;99.90;;;;;;5094003;28;20196;-72
2023/03/22 08:32:40;;;;;;;6.97;5.00;;;12.70;99.90;;;;;;5093979;28;20269;-73
2023/03/22 08:35:08;;;;;;;4.73;3.70;;;12.70;99.90;;;;;;5094224;28;20261;-73
2023/03/22 08:37:35;;;;;;;4.30;3.90;;;12.60;99.90;;;;;;5094039;28;20196;-73
2023/03/22 08:40:05;;;;;;;7.40;4.00;;;12.70;99.90;;;;;;5093954;28;20199;-73
2023/03/22 08:42:31;;;;;;;5.13;3.53;;;12.90;99.90;;;;;;5093819;28;20367;-73
2023/03/22 08:44:58;;;;;;;3.97;3.57;;;12.80;99.90;;;;;;5093673;28;20247;-73
2023/03/22 08:47:25;;;;;;;7.90;5.20;;;12.70;99.90;;;;;;5093901;28;20332;-73
2023/03/22 08:49:52;;;;;;;5.50;4.57;;;13.00;99.90;;;;;;5093906;28;20315;-73
2023/03/22 08:52:19;;;;;;;5.20;3.57;;;13.10;99.90;;;;;;5093770;28;20228;-72
2023/03/22 08:54:46;;;;;;;4.03;3.53;;;13.30;99.90;;;;;;5093593;28;20207;-72
2023/03/22 08:57:13;;;;;;;5.67;3.50;;;13.10;99.90;;;;;;5093580;28;20659;-73
2023/03/22 08:59:40;;;;;;;3.87;3.57;;;13.20;99.90;;;;;;5093581;28;20666;-73
2023/03/22 09:02:06;;;;;;;5.90;4.10;;;13.20;99.90;;;;;;5093590;28;20227;-72
2023/03/22 09:04:33;;;;;;;4.17;3.20;;;13.30;99.90;;;;;;5092695;28;20228;-73
2023/03/22 09:07:01;;;;;;;4.13;3.37;;;13.60;99.90;;;;;;5093587;28;20734;-73
2023/03/22 09:09:28;;;;;;;3.33;3.00;;;13.60;99.90;;;;;;5093457;28;20203;-73
2023/03/22 09:11:55;;;;;;;5.13;2.80;;;13.40;99.90;;;;;;5093294;28;20196;-73
2023/03/22 09:14:21;;;;;;;4.30;3.20;;;13.50;99.90;;;;;;5093300;28;20596;-73
2023/03/22 09:16:48;;;;;;;4.43;3.10;;;13.30;99.90;;;;;;5093435;28;20230;-72
2023/03/22 09:19:15;;;;;;;3.10;2.80;;;13.50;99.90;;;;;;5093230;28;20224;-72
2023/03/22 09:21:41;;;;;;;5.07;3.30;;;13.40;99.90;;;;;;5093123;28;20851;-71
2023/03/22 09:24:10;;;;;;;4.30;3.27;;;13.70;99.90;;;;;;5093125;28;20258;-72
2023/03/22 09:26:36;;;;;;;3.40;2.80;;;13.60;99.90;;;;;;5092442;28;20200;-71
2023/03/22 09:29:03;;;;;;;3.40;2.83;;;13.80;99.90;;;;;;5093109;28;20196;-71
2023/03/22 09:31:30;;;;;;;3.40;2.87;;;13.80;99.90;;;;;;5092832;28;20196;-71
2023/03/22 09:33:57;;;;;;;8.13;2.70;;;14.00;99.90;;;;;;5092841;28;20228;-71
2023/03/22 09:36:23;;;;;;;4.07;3.27;;;13.90;99.90;;;;;;5092827;28;20253;-71
2023/03/22 09:38:50;;;;;;;5.00;2.83;;;14.20;99.90;;;;;;5093162;28;20242;-72
2023/03/22 09:41:23;;;;;;;4.53;3.50;;;14.30;99.90;;;;;;5092645;28;20223;-74
2023/03/22 09:43:54;;;;;;;4.03;3.13;;;14.20;99.90;;;;;;5092764;28;20267;-73
2023/03/22 09:46:28;;;;;;;4.07;2.50;;;14.50;99.90;;;;;;5092774;28;20239;-73
2023/03/22 09:48:56;;;;;;;5.47;2.70;;;14.20;99.90;;;;;;5092864;28;20559;-72
2023/03/22 09:51:39;;;;;;;6.05;2.50;;;14.40;99.90;;;;;;5092741;28;20208;-74
2023/03/22 09:54:12;;;;;;;4.82;3.35;;;14.60;99.90;;;;;;5093044;28;20671;-73
2023/03/22 09:56:40;;;;;;;2.30;1.90;;;14.80;99.90;;;;;;5093109;28;20311;-77
2023/03/22 09:59:15;;;;;;;5.20;2.13;;;14.70;99.90;;;;;;5092714;28;20596;-74
2023/03/22 10:01:47;;;;;;;5.35;2.38;;;14.80;99.90;;;;;;5092855;28;20222;-72
2023/03/22 10:04:27;;;;;;;2.95;1.70;;;14.60;99.90;;;;;;5092854;28;20269;-72
2023/03/22 10:07:02;;;;;;;3.53;1.70;;;14.60;99.90;;;;;;5092580;28;20690;-72
2023/03/22 10:09:37;;;;;;;4.75;3.50;;;14.60;99.90;;;;;;5092629;28;20238;-72
2023/03/22 10:12:12;;;;;;;4.80;2.78;;;14.80;99.90;;;;;;5092145;28;20234;-72
2023/03/22 10:14:41;;;;;;;4.10;2.05;;;15.20;99.90;;;;;;5093296;28;20246;-72
2023/03/22 10:17:12;;;;;;;1.90;1.77;;;15.40;99.90;;;;;;5096952;28;20237;-73
2023/03/22 10:19:48;;;;;;;2.35;1.60;;;15.30;99.90;;;;;;5096923;28;20253;-72
2023/03/22 10:22:18;;;;;;;3.28;2.40;;;15.30;99.90;;;;;;5096774;28;20238;-72
2023/03/22 10:24:48;;;;;;;4.45;2.42;;;15.80;99.90;;;;;;5096590;28;20729;-72
2023/03/22 10:27:18;;;;;;;2.17;1.98;;;16.30;99.90;;;;;;5096770;28;20208;-73
2023/03/22 10:29:50;;;;;;;3.33;2.20;;;16.40;99.90;;;;;;5096540;28;20617;-72
2023/03/22 10:32:18;;;;;;;3.08;1.92;;;16.00;99.90;;;;;;5096708;28;20231;-72
2023/03/22 10:34:46;;;;;;;3.25;2.13;;;15.80;99.90;;;;;;5096243;28;20267;-73
2023/03/22 10:37:16;;;;;;;4.88;1.88;;;16.40;99.90;;;;;;5096528;28;20279;-72
2023/03/22 10:39:46;;;;;;;3.47;2.00;;;17.20;99.90;;;;;;5096875;28;20300;-72
2023/03/22 10:42:17;;;;;;;3.92;2.22;;;17.60;99.90;;;;;;5096425;28;20202;-72
2023/03/22 10:44:47;;;;;;;5.05;1.98;;;17.60;99.90;;;;;;5096375;28;20305;-72
2023/03/22 10:47:17;;;;;;;2.00;1.80;;;18.00;99.90;;;;;;5096416;28;20211;-73
2023/03/22 10:49:45;;;;;;;3.28;1.80;;;17.90;99.40;;;;;;5096143;28;20199;-73
2023/03/22 10:52:23;;;;;;;3.20;1.90;;;18.70;98.10;;;;;;5095966;28;20204;-72
2023/03/22 10:54:50;;;;;;;2.92;1.77;;;18.70;96.40;;;;;;5096240;28;20341;-73
2023/03/22 10:57:18;;;;;;;1.92;1.65;;;19.00;94.30;;;;;;5096042;28;20254;-73
2023/03/22 10:59:47;;;;;;;3.88;2.25;;;19.60;92.70;;;;;;5095993;28;20223;-74
2023/03/22 11:02:22;;;;;;;1.75;1.60;;;18.70;92.90;;;;;;5095520;28;20246;-73
2023/03/22 11:04:50;;;;;;;2.63;1.60;;;18.30;92.50;;;;;;5095742;28;20276;-73
2023/03/22 11:07:30;;;;;;;2.00;1.67;;;18.40;91.20;;;;;;5095765;28;20200;-73
2023/03/22 11:10:21;;;;;;;2.30;1.70;;;17.80;90.10;;;;;;5095771;28;20287;-73
2023/03/22 11:12:51;;;;;;;2.53;1.95;;;18.50;89.40;;;;;;5095748;28;20672;-72
2023/03/22 11:15:28;;;;;;;3.55;2.92;;;18.10;88.90;;;;;;5095587;28;20204;-73
2023/03/22 11:17:59;;;;;;;3.70;2.08;;;18.30;90.00;;;;;;5095707;28;20236;-73
2023/03/22 11:20:26;;;;;;;5.03;2.50;;;17.90;90.50;;;;;;5095574;28;20207;-73
2023/03/22 11:22:55;;;;;;;2.63;2.05;;;17.50;91.30;;;;;;5095500;28;20214;-72
2023/03/22 11:25:26;;;;;;;2.90;1.52;;;17.90;91.60;;;;;;5095168;28;20235;-72
2023/03/22 11:27:56;;;;;;;2.40;1.58;;;18.50;88.90;;;;;;5094503;28;20200;-72
2023/03/22 11:30:25;;;;;;;1.75;1.65;;;18.50;88.30;;;;;;5095556;28;20253;-72
2023/03/22 11:33:02;;;;;;;1.67;1.40;;;19.20;86.70;;;;;;5095226;28;20228;-72
2023/03/22 11:35:30;;;;;;;2.88;1.63;;;20.00;83.90;;;;;;5095260;28;20210;-73
2023/03/22 11:37:58;;;;;;;6.95;1.83;;;18.80;83.40;;;;;;5094928;28;20241;-72
2023/03/22 11:40:26;;;;;;;2.20;1.73;;;18.10;87.00;;;;;;5095177;28;20196;-72
2023/03/22 11:42:57;;;;;;;1.83;1.40;;;17.80;89.70;;;;;;5095102;28;20223;-72
2023/03/22 11:45:28;;;;;;;2.33;1.58;;;18.10;87.40;;;;;;5094865;28;20259;-72
2023/03/22 11:48:01;;;;;;;3.17;1.58;;;18.00;87.30;;;;;;5094798;28;20231;-72
2023/03/22 11:50:30;;;;;;;2.58;1.52;;;18.70;84.30;;;;;;5094823;28;20257;-72
2023/03/22 11:52:57;;;;;;;4.95;1.50;;;19.10;82.40;;;;;;5094812;28;20690;-72
2023/03/22 11:55:25;;;;;;;1.92;1.70;;;19.90;81.90;;;;;;5094834;28;20196;-72
2023/03/22 11:57:56;;;;;;;2.50;1.70;;;19.90;80.30;;;;;;5094795;28;20533;-73
2023/03/22 12:00:26;;;;;;;2.65;1.35;;;20.30;79.60;;;;;;5094688;28;20224;-72
2023/03/22 12:02:57;;;;;;;3.33;1.50;;;20.50;76.30;;;;;;5094359;28;20228;-72
2023/03/22 12:05:27;;;;;;;1.50;1.20;;;21.90;70.80;;;;;;5094449;28;20259;-72
2023/03/22 12:07:58;;;;;;;1.60;1.25;;;20.10;70.30;;;;;;5094576;28;20203;-72
2023/03/22 12:10:29;;;;;;;1.30;1.17;;;20.20;68.80;;;;;;5094539;28;20196;-72
2023/03/22 12:13:01;;;;;;;1.58;1.20;;;20.00;65.60;;;;;;5094335;28;20232;-72
2023/03/22 12:15:31;;;;;;;2.30;1.10;;;20.60;65.70;;;;;;5094326;28;20235;-73
2023/03/22 12:18:05;;;;;;;2.10;1.38;;;20.50;64.90;;;;;;5088440;28;20231;-74
2023/03/22 12:20:40;;;;;;;1.80;1.33;;;20.40;65.50;;;;;;5073814;28;20612;-73
2023/03/22 12:23:14;;;;;;;1.80;1.30;;;20.70;64.20;;;;;;5087288;28;20199;-73
2023/03/22 12:25:44;;;;;;;1.75;1.27;;;20.70;61.20;;;;;;5093845;28;20315;-74
2023/03/22 12:28:16;;;;;;;3.72;1.33;;;21.50;61.80;;;;;;5094218;28;20231;-75
2023/03/22 12:30:46;;;;;;;1.90;1.05;;;22.90;59.40;;;;;;5094350;28;20227;-74
2023/03/22 12:33:18;;;;;;;1.73;1.20;;;23.10;56.50;;;;;;5093455;28;20258;-72
2023/03/22 12:35:46;;;;;;;1.20;1.10;;;21.80;55.80;;;;;;5093950;28;20200;-72
2023/03/22 12:38:23;;;;;;;1.80;1.30;;;21.70;56.20;;;;;;5093610;28;20686;-72
2023/03/22 12:40:53;;;;;;;2.63;1.33;;;21.30;56.70;;;;;;5094235;28;20200;-71
2023/03/22 12:43:30;;;;;;;2.03;1.17;;;20.80;57.10;;;;;;5094034;28;20228;-72
2023/03/22 12:46:01;;;;;;;3.47;1.40;;;20.30;56.70;;;;;;5093756;28;20594;-71
2023/03/22 12:48:34;;;;;;;1.42;1.20;;;19.50;57.00;;;;;;5093629;28;20287;-71
2023/03/22 12:51:04;;;;;;;1.75;1.20;;;19.20;58.40;;;;;;5093790;28;20196;-72
2023/03/22 12:53:41;;;;;;;2.30;1.50;;;18.70;59.50;;;;;;5093921;28;20667;-74